Time,TemperatureF,DewpointF,PressureIn,WindDirection,WindDirectionDegrees,WindSpeedMPH,WindSpeedGustMPH,Humidity,HourlyPrecipIn,Conditions,Clouds,dailyrainin,SoftwareType,DateUTC
2013-10-04 00:36:00,69.1,62.0,30.11,West,268,0.0,0.0,79,0.00,,,0.00,weatherlink.com 1.10,2013-10-04 04:36:00,
2013-10-04 00:51:00,68.8,62.0,30.11,West,268,0.0,0.0,80,0.00,,,0.00,weatherlink.com 1.10,2013-10-04 04:51:00,
2013-10-04 01:06:00,68.5,62.0,30.11,West,268,0.0,0.0,80,0.00,,,0.00,weatherlink.com 1.10,2013-10-04 05:06:00,
2013-10-04 01:36:00,67.8,62.0,30.12,West,269,0.0,0.0,81,0.00,,,0.00,weatherlink.com 1.10,2013-10-04 05:36:00,
2013-10-04 01:51:00,67.6,62.0,30.12,West,268,0.0,0.0,81,0.00,,,0.00,weatherlink.com 1.10,2013-10-04 05:51:00,
2013-10-04 02:06:00,67.6,62.0,30.12,West,267,0.0,0.0,81,0.00,,,0.00,weatherlink.com 1.10,2013-10-04 06:06:00,
2013-10-04 02:21:00,67.5,62.0,30.12,West,268,0.0,0.0,81,0.00,,,0.00,weatherlink.com 1.10,2013-10-04 06:21:00,
2013-10-04 02:36:00,67.2,61.0,30.11,West,268,0.0,0.0,81,0.00,,,0.00,weatherlink.com 1.10,2013-10-04 06:36:00,
2013-10-04 02:51:00,66.9,61.0,30.12,West,269,0.0,0.0,81,0.00,,,0.00,weatherlink.com 1.10,2013-10-04 06:51:00,
2013-10-04 03:06:00,66.5,61.0,30.12,West,267,0.0,0.0,82,0.00,,,0.00,weatherlink.com 1.10,2013-10-04 07:06:00,
2013-10-04 03:21:00,66.1,61.0,30.11,West,267,0.0,0.0,82,0.00,,,0.00,weatherlink.com 1.10,2013-10-04 07:21:00,
2013-10-04 03:36:00,65.8,61.0,30.11,West,269,0.0,0.0,83,0.00,,,0.00,weatherlink.com 1.10,2013-10-04 07:36:00,
2013-10-04 03:51:00,65.5,60.0,30.11,West,267,0.0,0.0,83,0.00,,,0.00,weatherlink.com 1.10,2013-10-04 07:51:00,
2013-10-04 04:06:00,65.4,61.0,30.11,West,269,0.0,0.0,84,0.00,,,0.00,weatherlink.com 1.10,2013-10-04 08:06:00,
2013-10-04 04:21:00,65.1,60.0,30.11,West,267,0.0,0.0,84,0.00,,,0.00,weatherlink.com 1.10,2013-10-04 08:21:00,
2013-10-04 04:36:00,64.9,60.0,30.12,West,267,0.0,0.0,84,0.00,,,0.00,weatherlink.com 1.10,2013-10-04 08:36:00,
2013-10-04 04:51:00,64.7,60.0,30.12,West,267,0.0,0.0,84,0.00,,,0.00,weatherlink.com 1.10,2013-10-04 08:51:00,
2013-10-04 05:06:00,64.5,60.0,30.12,West,268,0.0,0.0,85,0.00,,,0.00,weatherlink.com 1.10,2013-10-04 09:06:00,
2013-10-04 05:21:00,64.3,60.0,30.12,West,267,0.0,0.0,85,0.00,,,0.00,weatherlink.com 1.10,2013-10-04 09:21:00,
2013-10-04 05:36:00,64.2,60.0,30.12,West,267,0.0,0.0,85,0.00,,,0.00,weatherlink.com 1.10,2013-10-04 09:36:00,
2013-10-04 05:51:00,64.1,60.0,30.13,West,268,0.0,0.0,85,0.00,,,0.00,weatherlink.com 1.10,2013-10-04 09:51:00,
2013-10-04 06:06:00,64.0,60.0,30.13,West,267,0.0,0.0,85,0.00,,,0.00,weatherlink.com 1.10,2013-10-04 10:06:00,
2013-10-04 06:21:00,63.8,59.0,30.13,West,268,0.0,0.0,85,0.00,,,0.00,weatherlink.com 1.10,2013-10-04 10:21:00,
2013-10-04 06:36:00,63.6,59.0,30.13,West,268,0.0,0.0,85,0.00,,,0.00,weatherlink.com 1.10,2013-10-04 10:36:00,
2013-10-04 06:51:00,63.6,59.0,30.12,West,269,0.0,0.0,86,0.00,,,0.00,weatherlink.com 1.10,2013-10-04 10:51:00,
2013-10-04 07:06:00,63.5,59.0,30.13,West,268,0.0,0.0,86,0.00,,,0.00,weatherlink.com 1.10,2013-10-04 11:06:00,
2013-10-04 07:21:00,63.5,59.0,30.13,West,268,0.0,0.0,86,0.00,,,0.00,weatherlink.com 1.10,2013-10-04 11:21:00,
2013-10-04 07:36:00,63.4,59.0,30.14,West,268,0.0,0.0,86,0.00,,,0.00,weatherlink.com 1.10,2013-10-04 11:36:00,
2013-10-04 07:51:00,63.3,59.0,30.14,North,360,0.0,0.0,86,0.00,,,0.00,weatherlink.com 1.10,2013-10-04 11:51:00,
2013-10-04 08:06:00,63.4,60.0,30.14,West,267,0.0,0.0,87,0.00,,,0.00,weatherlink.com 1.10,2013-10-04 12:06:00,
2013-10-04 08:21:00,63.7,60.0,30.14,West,268,0.0,0.0,87,0.00,,,0.00,weatherlink.com 1.10,2013-10-04 12:21:00,
2013-10-04 08:36:00,64.0,60.0,30.15,West,268,0.0,0.0,87,0.00,,,0.00,weatherlink.com 1.10,2013-10-04 12:36:00,
2013-10-04 08:51:00,64.5,61.0,30.15,West,268,0.0,0.0,87,0.00,,,0.00,weatherlink.com 1.10,2013-10-04 12:51:00,
2013-10-04 09:06:00,65.4,62.0,30.15,West,268,0.0,0.0,88,0.00,,,0.00,weatherlink.com 1.10,2013-10-04 13:06:00,
2013-10-04 09:21:00,66.5,63.0,30.15,West,268,0.0,0.0,88,0.00,,,0.00,weatherlink.com 1.10,2013-10-04 13:21:00,
2013-10-04 09:36:00,67.2,64.0,30.15,West,268,0.0,0.0,88,0.00,,,0.00,weatherlink.com 1.10,2013-10-04 13:36:00,
2013-10-04 09:51:00,67.9,64.0,30.15,West,267,0.0,0.0,87,0.00,,,0.00,weatherlink.com 1.10,2013-10-04 13:51:00,
2013-10-04 10:06:00,68.6,64.0,30.15,West,267,0.0,0.0,86,0.00,,,0.00,weatherlink.com 1.10,2013-10-04 14:06:00,
2013-10-04 10:21:00,69.4,65.0,30.14,West,267,0.0,0.0,85,0.00,,,0.00,weatherlink.com 1.10,2013-10-04 14:21:00,
2013-10-04 10:36:00,70.4,65.0,30.15,West,268,0.0,0.0,83,0.00,,,0.00,weatherlink.com 1.10,2013-10-04 14:36:00,
2013-10-04 10:51:00,71.4,65.0,30.15,West,267,0.0,0.0,81,0.00,,,0.00,weatherlink.com 1.10,2013-10-04 14:51:00,
2013-10-04 11:06:00,72.5,66.0,30.15,West,269,0.0,0.0,79,0.00,,,0.00,weatherlink.com 1.10,2013-10-04 15:06:00,
2013-10-04 11:21:00,73.6,66.0,30.14,West,269,0.0,0.0,78,0.00,,,0.00,weatherlink.com 1.10,2013-10-04 15:21:00,
2013-10-04 11:37:00,74.6,66.0,30.14,West,269,0.0,0.0,75,0.00,,,0.00,weatherlink.com 1.10,2013-10-04 15:37:00,
2013-10-04 11:52:00,75.7,66.0,30.14,West,269,0.0,0.0,73,0.00,,,0.00,weatherlink.com 1.10,2013-10-04 15:52:00,
2013-10-04 12:07:00,76.9,67.0,30.14,WSW,250,0.0,0.0,71,0.00,,,0.00,weatherlink.com 1.10,2013-10-04 16:07:00,
2013-10-04 12:22:00,77.8,66.0,30.13,WSW,250,0.0,0.0,67,0.00,,,0.00,weatherlink.com 1.10,2013-10-04 16:22:00,
2013-10-04 12:37:00,78.5,67.0,30.13,WSW,250,0.0,0.0,67,0.00,,,0.00,weatherlink.com 1.10,2013-10-04 16:37:00,
2013-10-04 12:52:00,79.1,65.0,30.13,South,182,0.0,0.0,63,0.00,,,0.00,weatherlink.com 1.10,2013-10-04 16:52:00,
2013-10-04 13:07:00,79.7,66.0,30.12,SSW,207,0.0,0.0,63,0.00,,,0.00,weatherlink.com 1.10,2013-10-04 17:07:00,
2013-10-04 13:22:00,80.0,66.0,30.11,ESE,117,0.0,0.0,62,0.00,,,0.00,weatherlink.com 1.10,2013-10-04 17:22:00,
2013-10-04 13:37:00,80.4,66.0,30.10,SE,134,0.0,0.0,62,0.00,,,0.00,weatherlink.com 1.10,2013-10-04 17:37:00,
2013-10-04 14:07:00,81.0,65.0,30.09,SE,134,0.0,0.0,59,0.00,,,0.00,weatherlink.com 1.10,2013-10-04 18:07:00,
2013-10-04 14:22:00,81.3,67.0,30.08,SE,134,0.0,0.0,62,0.00,,,0.00,weatherlink.com 1.10,2013-10-04 18:22:00,
2013-10-04 14:37:00,81.1,67.0,30.08,SE,134,0.0,0.0,63,0.00,,,0.00,weatherlink.com 1.10,2013-10-04 18:37:00,
2013-10-04 14:52:00,80.9,67.0,30.08,SE,134,0.0,0.0,62,0.00,,,0.00,weatherlink.com 1.10,2013-10-04 18:52:00,
2013-10-04 15:07:00,80.3,68.0,30.08,SE,134,0.0,0.0,66,0.00,,,0.00,weatherlink.com 1.10,2013-10-04 19:07:00,
2013-10-04 15:22:00,80.0,66.0,30.07,SE,135,0.0,0.0,62,0.00,,,0.00,weatherlink.com 1.10,2013-10-04 19:22:00,
2013-10-04 15:37:00,79.7,66.0,30.07,SE,136,0.0,0.0,64,0.00,,,0.00,weatherlink.com 1.10,2013-10-04 19:37:00,
2013-10-04 15:52:00,79.9,66.0,30.07,SE,135,0.0,0.0,62,0.00,,,0.00,weatherlink.com 1.10,2013-10-04 19:52:00,
2013-10-04 16:07:00,80.7,66.0,30.07,SE,135,0.0,0.0,62,0.00,,,0.00,weatherlink.com 1.10,2013-10-04 20:07:00,
2013-10-04 16:22:00,80.1,67.0,30.06,SE,135,0.0,0.0,64,0.00,,,0.00,weatherlink.com 1.10,2013-10-04 20:22:00,
2013-10-04 16:37:00,79.7,68.0,30.06,SE,135,0.0,0.0,67,0.00,,,0.00,weatherlink.com 1.10,2013-10-04 20:37:00,
2013-10-04 17:07:00,79.6,68.0,30.06,SE,136,0.0,0.0,68,0.00,,,0.00,weatherlink.com 1.10,2013-10-04 21:07:00,
2013-10-04 17:22:00,79.2,69.0,30.06,SE,136,0.0,0.0,70,0.00,,,0.00,weatherlink.com 1.10,2013-10-04 21:22:00,
2013-10-04 17:37:00,78.7,68.0,30.06,SE,136,0.0,0.0,69,0.00,,,0.00,weatherlink.com 1.10,2013-10-04 21:37:00,
2013-10-04 17:52:00,78.2,67.0,30.07,SE,135,0.0,0.0,69,0.00,,,0.00,weatherlink.com 1.10,2013-10-04 21:52:00,
2013-10-04 18:07:00,77.9,67.0,30.06,SE,135,0.0,0.0,69,0.00,,,0.00,weatherlink.com 1.10,2013-10-04 22:07:00,
2013-10-04 18:22:00,77.4,67.0,30.07,SE,136,0.0,0.0,70,0.00,,,0.00,weatherlink.com 1.10,2013-10-04 22:22:00,
2013-10-04 18:37:00,76.8,67.0,30.07,SE,135,0.0,0.0,72,0.00,,,0.00,weatherlink.com 1.10,2013-10-04 22:37:00,
2013-10-04 18:52:00,76.0,67.0,30.07,SE,135,0.0,0.0,73,0.00,,,0.00,weatherlink.com 1.10,2013-10-04 22:52:00,
2013-10-04 19:07:00,75.3,67.0,30.07,SE,136,0.0,0.0,75,0.00,,,0.00,weatherlink.com 1.10,2013-10-04 23:07:00,
2013-10-04 19:22:00,74.7,67.0,30.07,SE,136,0.0,0.0,76,0.00,,,0.00,weatherlink.com 1.10,2013-10-04 23:22:00,
2013-10-04 19:37:00,74.1,66.0,30.07,SE,135,0.0,0.0,77,0.00,,,0.00,weatherlink.com 1.10,2013-10-04 23:37:00,
2013-10-04 19:52:00,73.5,66.0,30.08,SE,135,0.0,0.0,78,0.00,,,0.00,weatherlink.com 1.10,2013-10-04 23:52:00,
2013-10-04 20:07:00,72.9,66.0,30.08,SE,135,0.0,0.0,79,0.00,,,0.00,weatherlink.com 1.10,2013-10-05 00:07:00,
2013-10-04 20:22:00,72.4,66.0,30.08,SE,136,0.0,0.0,79,0.00,,,0.00,weatherlink.com 1.10,2013-10-05 00:22:00,
2013-10-04 20:37:00,71.9,65.0,30.08,SE,135,0.0,0.0,79,0.00,,,0.00,weatherlink.com 1.10,2013-10-05 00:37:00,
2013-10-04 20:52:00,71.5,65.0,30.09,SE,135,0.0,0.0,80,0.00,,,0.00,weatherlink.com 1.10,2013-10-05 00:52:00,
2013-10-04 21:07:00,71.2,65.0,30.09,SE,135,0.0,0.0,80,0.00,,,0.00,weatherlink.com 1.10,2013-10-05 01:07:00,
2013-10-04 21:22:00,70.9,64.0,30.10,SE,135,0.0,0.0,80,0.00,,,0.00,weatherlink.com 1.10,2013-10-05 01:22:00,
2013-10-04 21:37:00,70.6,64.0,30.10,SE,136,0.0,0.0,80,0.00,,,0.00,weatherlink.com 1.10,2013-10-05 01:37:00,
2013-10-04 21:52:00,70.4,64.0,30.11,SE,135,0.0,0.0,80,0.00,,,0.00,weatherlink.com 1.10,2013-10-05 01:52:00,
2013-10-04 22:07:00,70.3,64.0,30.11,SE,136,0.0,0.0,80,0.00,,,0.00,weatherlink.com 1.10,2013-10-05 02:07:00,
2013-10-04 22:22:00,70.1,64.0,30.11,SE,134,0.0,0.0,80,0.00,,,0.00,weatherlink.com 1.10,2013-10-05 02:22:00,
2013-10-04 22:37:00,70.0,64.0,30.11,SE,136,0.0,0.0,80,0.00,,,0.00,weatherlink.com 1.10,2013-10-05 02:37:00,
2013-10-04 22:52:00,69.7,63.0,30.11,SE,136,0.0,0.0,80,0.00,,,0.00,weatherlink.com 1.10,2013-10-05 02:52:00,
2013-10-04 23:07:00,69.5,63.0,30.11,SE,135,0.0,0.0,81,0.00,,,0.00,weatherlink.com 1.10,2013-10-05 03:07:00,
2013-10-04 23:22:00,69.1,63.0,30.11,SE,135,0.0,0.0,81,0.00,,,0.00,weatherlink.com 1.10,2013-10-05 03:22:00,
2013-10-04 23:37:00,68.5,63.0,30.11,SE,135,0.0,0.0,81,0.00,,,0.00,weatherlink.com 1.10,2013-10-05 03:37:00,
2013-10-04 23:52:00,68.1,62.0,30.11,SE,136,0.0,0.0,82,0.00,,,0.00,weatherlink.com 1.10,2013-10-05 03:52:00,